sensor_id;sensor_type;location;lat;lon;timestamp;temperature;humidity
27781;DHT22;15167;1.318;103.762;2023-07-31T00:02:09;28.20;99.90
27781;DHT22;15167;1.318;103.762;2023-07-31T00:04:36;28.20;99.90
27781;DHT22;15167;1.318;103.762;2023-07-31T00:07:02;28.30;99.90
27781;DHT22;15167;1.318;103.762;2023-07-31T00:09:30;28.30;99.90
27781;DHT22;15167;1.318;103.762;2023-07-31T00:11:56;28.30;99.90
27781;DHT22;15167;1.318;103.762;2023-07-31T00:14:23;28.30;99.90
27781;DHT22;15167;1.318;103.762;2023-07-31T00:16:49;28.30;99.90
27781;DHT22;15167;1.318;103.762;2023-07-31T00:19:16;28.40;99.90
27781;DHT22;15167;1.318;103.762;2023-07-31T00:21:43;28.40;99.90
27781;DHT22;15167;1.318;103.762;2023-07-31T00:24:10;28.40;99.90
27781;DHT22;15167;1.318;103.762;2023-07-31T00:26:36;28.50;99.90
27781;DHT22;15167;1.318;103.762;2023-07-31T00:29:03;28.50;99.90
27781;DHT22;15167;1.318;103.762;2023-07-31T00:31:30;28.50;99.90
27781;DHT22;15167;1.318;103.762;2023-07-31T00:33:56;28.50;99.90
27781;DHT22;15167;1.318;103.762;2023-07-31T00:36:23;28.60;99.90
27781;DHT22;15167;1.318;103.762;2023-07-31T00:38:49;28.60;99.90
27781;DHT22;15167;1.318;103.762;2023-07-31T00:41:16;28.70;99.90
27781;DHT22;15167;1.318;103.762;2023-07-31T00:43:42;28.70;99.90
27781;DHT22;15167;1.318;103.762;2023-07-31T00:46:09;28.70;99.90
27781;DHT22;15167;1.318;103.762;2023-07-31T00:48:36;28.80;99.90
27781;DHT22;15167;1.318;103.762;2023-07-31T00:51:03;28.80;99.90
27781;DHT22;15167;1.318;103.762;2023-07-31T00:53:30;28.80;99.90
27781;DHT22;15167;1.318;103.762;2023-07-31T00:55:58;28.90;99.90
27781;DHT22;15167;1.318;103.762;2023-07-31T00:58:24;28.90;99.90
27781;DHT22;15167;1.318;103.762;2023-07-31T01:00:51;28.90;99.90
27781;DHT22;15167;1.318;103.762;2023-07-31T01:03:18;29.00;99.90
27781;DHT22;15167;1.318;103.762;2023-07-31T01:11:21;29.20;99.90
27781;DHT22;15167;1.318;103.762;2023-07-31T01:13:52;29.30;99.90
27781;DHT22;15167;1.318;103.762;2023-07-31T01:16:19;29.40;99.90
27781;DHT22;15167;1.318;103.762;2023-07-31T01:18:46;29.40;99.90
27781;DHT22;15167;1.318;103.762;2023-07-31T01:24:28;29.40;99.90
27781;DHT22;15167;1.318;103.762;2023-07-31T01:27:06;29.50;99.90
27781;DHT22;15167;1.318;103.762;2023-07-31T01:30:03;29.50;99.90
27781;DHT22;15167;1.318;103.762;2023-07-31T01:32:40;29.50;99.90
27781;DHT22;15167;1.318;103.762;2023-07-31T01:35:07;29.40;99.90
27781;DHT22;15167;1.318;103.762;2023-07-31T01:37:34;29.40;99.90
27781;DHT22;15167;1.318;103.762;2023-07-31T01:40:01;29.50;99.90
27781;DHT22;15167;1.318;103.762;2023-07-31T01:42:28;29.60;99.90
27781;DHT22;15167;1.318;103.762;2023-07-31T01:44:54;29.70;99.90
27781;DHT22;15167;1.318;103.762;2023-07-31T01:47:23;29.70;99.90
27781;DHT22;15167;1.318;103.762;2023-07-31T01:49:50;29.70;99.90
27781;DHT22;15167;1.318;103.762;2023-07-31T01:52:16;29.70;99.90
27781;DHT22;15167;1.318;103.762;2023-07-31T01:54:43;29.80;99.90
27781;DHT22;15167;1.318;103.762;2023-07-31T01:57:09;29.70;99.90
27781;DHT22;15167;1.318;103.762;2023-07-31T01:59:36;29.80;99.90
27781;DHT22;15167;1.318;103.762;2023-07-31T02:02:02;29.70;99.90
27781;DHT22;15167;1.318;103.762;2023-07-31T02:04:29;29.80;99.90
27781;DHT22;15167;1.318;103.762;2023-07-31T02:06:56;29.90;99.90
27781;DHT22;15167;1.318;103.762;2023-07-31T02:09:22;30.00;99.90
27781;DHT22;15167;1.318;103.762;2023-07-31T02:11:49;29.90;99.90
27781;DHT22;15167;1.318;103.762;2023-07-31T02:14:15;30.00;99.90
27781;DHT22;15167;1.318;103.762;2023-07-31T02:16:42;30.10;99.90
27781;DHT22;15167;1.318;103.762;2023-07-31T02:19:09;30.20;99.90
27781;DHT22;15167;1.318;103.762;2023-07-31T02:21:35;30.30;99.90
27781;DHT22;15167;1.318;103.762;2023-07-31T02:24:02;30.40;99.90
27781;DHT22;15167;1.318;103.762;2023-07-31T02:26:29;30.40;99.90
27781;DHT22;15167;1.318;103.762;2023-07-31T02:28:55;30.30;99.90
27781;DHT22;15167;1.318;103.762;2023-07-31T02:31:22;30.30;99.90
27781;DHT22;15167;1.318;103.762;2023-07-31T02:33:48;30.30;99.90
27781;DHT22;15167;1.318;103.762;2023-07-31T02:36:15;30.30;99.90
27781;DHT22;15167;1.318;103.762;2023-07-31T02:38:41;30.30;99.90
27781;DHT22;15167;1.318;103.762;2023-07-31T02:41:08;30.30;99.90
27781;DHT22;15167;1.318;103.762;2023-07-31T02:43:34;30.30;99.90
27781;DHT22;15167;1.318;103.762;2023-07-31T02:46:01;30.20;99.90
27781;DHT22;15167;1.318;103.762;2023-07-31T02:48:27;30.10;99.90
27781;DHT22;15167;1.318;103.762;2023-07-31T02:50:54;30.20;99.90
27781;DHT22;15167;1.318;103.762;2023-07-31T02:53:20;30.30;99.90
27781;DHT22;15167;1.318;103.762;2023-07-31T02:55:49;30.40;99.90
27781;DHT22;15167;1.318;103.762;2023-07-31T02:58:15;30.50;99.90
27781;DHT22;15167;1.318;103.762;2023-07-31T03:00:45;30.60;99.90
27781;DHT22;15167;1.318;103.762;2023-07-31T03:03:11;30.60;99.90
27781;DHT22;15167;1.318;103.762;2023-07-31T03:05:38;30.50;99.90
27781;DHT22;15167;1.318;103.762;2023-07-31T03:08:05;30.50;99.90
27781;DHT22;15167;1.318;103.762;2023-07-31T03:10:31;30.60;99.90
27781;DHT22;15167;1.318;103.762;2023-07-31T03:12:58;30.70;99.90
27781;DHT22;15167;1.318;103.762;2023-07-31T03:15:24;30.80;99.90
27781;DHT22;15167;1.318;103.762;2023-07-31T03:17:51;30.80;99.90
27781;DHT22;15167;1.318;103.762;2023-07-31T03:20:17;30.90;99.90
27781;DHT22;15167;1.318;103.762;2023-07-31T03:22:44;30.90;99.90
27781;DHT22;15167;1.318;103.762;2023-07-31T03:25:10;30.90;99.90
27781;DHT22;15167;1.318;103.762;2023-07-31T03:27:37;31.00;99.90
27781;DHT22;15167;1.318;103.762;2023-07-31T03:30:04;31.00;99.90
27781;DHT22;15167;1.318;103.762;2023-07-31T03:32:30;31.00;99.90
27781;DHT22;15167;1.318;103.762;2023-07-31T03:34:58;31.10;99.90
27781;DHT22;15167;1.318;103.762;2023-07-31T03:37:24;31.20;99.90
27781;DHT22;15167;1.318;103.762;2023-07-31T03:39:51;31.20;99.90
27781;DHT22;15167;1.318;103.762;2023-07-31T03:42:17;31.30;99.90
27781;DHT22;15167;1.318;103.762;2023-07-31T03:44:44;31.40;99.90
27781;DHT22;15167;1.318;103.762;2023-07-31T03:47:10;31.60;99.90
27781;DHT22;15167;1.318;103.762;2023-07-31T03:49:37;31.50;99.90
27781;DHT22;15167;1.318;103.762;2023-07-31T03:52:04;31.50;99.90
27781;DHT22;15167;1.318;103.762;2023-07-31T03:54:31;31.60;99.90
27781;DHT22;15167;1.318;103.762;2023-07-31T03:56:57;31.70;99.90
27781;DHT22;15167;1.318;103.762;2023-07-31T03:59:24;31.80;99.90
27781;DHT22;15167;1.318;103.762;2023-07-31T04:01:50;31.80;99.90
27781;DHT22;15167;1.318;103.762;2023-07-31T04:04:17;31.70;99.90
27781;DHT22;15167;1.318;103.762;2023-07-31T04:06:43;31.60;99.90
27781;DHT22;15167;1.318;103.762;2023-07-31T04:09:10;31.60;99.90
27781;DHT22;15167;1.318;103.762;2023-07-31T04:11:36;31.50;99.90
27781;DHT22;15167;1.318;103.762;2023-07-31T04:14:03;31.70;99.90
27781;DHT22;15167;1.318;103.762;2023-07-31T04:16:30;31.60;99.90
27781;DHT22;15167;1.318;103.762;2023-07-31T04:18:56;31.70;99.90
27781;DHT22;15167;1.318;103.762;2023-07-31T04:21:23;31.80;99.90
27781;DHT22;15167;1.318;103.762;2023-07-31T04:23:49;32.00;99.90
27781;DHT22;15167;1.318;103.762;2023-07-31T04:26:16;32.00;99.90
27781;DHT22;15167;1.318;103.762;2023-07-31T04:28:42;32.10;99.90
27781;DHT22;15167;1.318;103.762;2023-07-31T04:31:09;32.10;99.90
27781;DHT22;15167;1.318;103.762;2023-07-31T04:33:35;32.10;99.90
27781;DHT22;15167;1.318;103.762;2023-07-31T04:36:02;32.10;99.90
27781;DHT22;15167;1.318;103.762;2023-07-31T04:38:28;32.20;99.90
27781;DHT22;15167;1.318;103.762;2023-07-31T04:40:55;32.40;99.90
27781;DHT22;15167;1.318;103.762;2023-07-31T04:43:21;32.50;99.90
27781;DHT22;15167;1.318;103.762;2023-07-31T04:45:48;32.40;99.90
27781;DHT22;15167;1.318;103.762;2023-07-31T04:48:16;32.10;99.90
27781;DHT22;15167;1.318;103.762;2023-07-31T04:50:42;32.00;99.90
27781;DHT22;15167;1.318;103.762;2023-07-31T04:53:09;32.00;99.90
27781;DHT22;15167;1.318;103.762;2023-07-31T04:55:36;32.40;99.90
27781;DHT22;15167;1.318;103.762;2023-07-31T04:58:02;32.70;99.90
27781;DHT22;15167;1.318;103.762;2023-07-31T05:00:29;33.00;99.90
27781;DHT22;15167;1.318;103.762;2023-07-31T05:02:55;33.00;99.90
27781;DHT22;15167;1.318;103.762;2023-07-31T05:05:22;32.90;99.90
27781;DHT22;15167;1.318;103.762;2023-07-31T05:07:48;32.80;99.90
27781;DHT22;15167;1.318;103.762;2023-07-31T05:10:15;33.20;99.90
27781;DHT22;15167;1.318;103.762;2023-07-31T05:12:42;33.40;97.10
27781;DHT22;15167;1.318;103.762;2023-07-31T05:15:08;33.80;93.40
27781;DHT22;15167;1.318;103.762;2023-07-31T05:17:35;33.90;90.70
27781;DHT22;15167;1.318;103.762;2023-07-31T05:20:02;33.70;90.10
27781;DHT22;15167;1.318;103.762;2023-07-31T05:22:28;33.90;88.50
27781;DHT22;15167;1.318;103.762;2023-07-31T05:24:55;34.10;84.50
27781;DHT22;15167;1.318;103.762;2023-07-31T05:27:21;34.30;79.80
27781;DHT22;15167;1.318;103.762;2023-07-31T05:29:48;34.40;73.60
27781;DHT22;15167;1.318;103.762;2023-07-31T05:32:15;34.50;70.50
27781;DHT22;15167;1.318;103.762;2023-07-31T05:34:41;34.60;67.50
27781;DHT22;15167;1.318;103.762;2023-07-31T05:37:10;34.40;66.60
27781;DHT22;15167;1.318;103.762;2023-07-31T05:39:38;34.10;67.90
27781;DHT22;15167;1.318;103.762;2023-07-31T05:42:04;34.30;69.70
27781;DHT22;15167;1.318;103.762;2023-07-31T05:44:31;34.60;66.20
27781;DHT22;15167;1.318;103.762;2023-07-31T05:46:57;34.50;67.50
27781;DHT22;15167;1.318;103.762;2023-07-31T05:49:24;34.30;69.20
27781;DHT22;15167;1.318;103.762;2023-07-31T05:51:50;34.10;72.80
27781;DHT22;15167;1.318;103.762;2023-07-31T05:54:17;33.90;75.80
27781;DHT22;15167;1.318;103.762;2023-07-31T05:56:43;33.80;77.30
27781;DHT22;15167;1.318;103.762;2023-07-31T05:59:12;33.70;76.40
27781;DHT22;15167;1.318;103.762;2023-07-31T06:01:39;33.40;81.70
27781;DHT22;15167;1.318;103.762;2023-07-31T06:04:06;33.20;86.80
27781;DHT22;15167;1.318;103.762;2023-07-31T06:06:33;33.10;95.70
27781;DHT22;15167;1.318;103.762;2023-07-31T06:09:00;32.90;91.70
27781;DHT22;15167;1.318;103.762;2023-07-31T06:11:27;32.90;92.90
27781;DHT22;15167;1.318;103.762;2023-07-31T06:13:53;32.80;94.70
27781;DHT22;15167;1.318;103.762;2023-07-31T06:16:20;32.70;96.10
27781;DHT22;15167;1.318;103.762;2023-07-31T06:18:47;32.60;98.70
27781;DHT22;15167;1.318;103.762;2023-07-31T06:21:14;32.40;99.90
27781;DHT22;15167;1.318;103.762;2023-07-31T06:23:40;32.30;99.90
27781;DHT22;15167;1.318;103.762;2023-07-31T06:26:07;32.20;99.90
27781;DHT22;15167;1.318;103.762;2023-07-31T06:28:34;32.10;99.90
27781;DHT22;15167;1.318;103.762;2023-07-31T06:31:01;31.90;99.90
27781;DHT22;15167;1.318;103.762;2023-07-31T06:33:28;31.70;99.90
27781;DHT22;15167;1.318;103.762;2023-07-31T06:35:54;31.50;99.90
27781;DHT22;15167;1.318;103.762;2023-07-31T06:38:26;31.50;99.90
27781;DHT22;15167;1.318;103.762;2023-07-31T06:40:53;31.70;99.90
27781;DHT22;15167;1.318;103.762;2023-07-31T06:43:19;31.90;99.90
27781;DHT22;15167;1.318;103.762;2023-07-31T06:45:46;32.30;99.90
27781;DHT22;15167;1.318;103.762;2023-07-31T06:48:16;32.20;99.90
27781;DHT22;15167;1.318;103.762;2023-07-31T06:50:42;31.90;99.90
27781;DHT22;15167;1.318;103.762;2023-07-31T06:53:09;31.80;99.90
27781;DHT22;15167;1.318;103.762;2023-07-31T06:55:35;31.60;99.90
27781;DHT22;15167;1.318;103.762;2023-07-31T06:58:02;31.30;99.90
27781;DHT22;15167;1.318;103.762;2023-07-31T07:00:28;31.00;99.90
27781;DHT22;15167;1.318;103.762;2023-07-31T07:02:55;30.80;99.90
27781;DHT22;15167;1.318;103.762;2023-07-31T07:05:21;30.60;99.90
27781;DHT22;15167;1.318;103.762;2023-07-31T07:07:50;30.50;99.90
27781;DHT22;15167;1.318;103.762;2023-07-31T07:10:19;30.30;99.90
27781;DHT22;15167;1.318;103.762;2023-07-31T07:12:46;30.20;99.90
27781;DHT22;15167;1.318;103.762;2023-07-31T07:15:12;30.10;99.90
27781;DHT22;15167;1.318;103.762;2023-07-31T07:17:39;29.90;99.90
27781;DHT22;15167;1.318;103.762;2023-07-31T07:20:06;29.80;99.90
27781;DHT22;15167;1.318;103.762;2023-07-31T07:22:33;29.80;99.90
27781;DHT22;15167;1.318;103.762;2023-07-31T07:25:00;29.80;99.90
27781;DHT22;15167;1.318;103.762;2023-07-31T07:27:26;29.90;99.90
27781;DHT22;15167;1.318;103.762;2023-07-31T07:29:53;30.00;99.90
27781;DHT22;15167;1.318;103.762;2023-07-31T07:32:20;30.20;99.90
27781;DHT22;15167;1.318;103.762;2023-07-31T07:34:48;30.30;99.90
27781;DHT22;15167;1.318;103.762;2023-07-31T07:37:15;30.40;99.90
27781;DHT22;15167;1.318;103.762;2023-07-31T07:39:42;30.30;99.90
27781;DHT22;15167;1.318;103.762;2023-07-31T07:42:08;30.40;99.90
27781;DHT22;15167;1.318;103.762;2023-07-31T07:44:35;30.70;99.90
27781;DHT22;15167;1.318;103.762;2023-07-31T07:47:01;30.90;99.90
27781;DHT22;15167;1.318;103.762;2023-07-31T07:49:28;30.90;99.90
27781;DHT22;15167;1.318;103.762;2023-07-31T07:51:54;31.00;99.90
27781;DHT22;15167;1.318;103.762;2023-07-31T07:54:21;31.10;99.90
27781;DHT22;15167;1.318;103.762;2023-07-31T07:56:48;31.20;99.90
27781;DHT22;15167;1.318;103.762;2023-07-31T07:59:14;31.30;99.90
27781;DHT22;15167;1.318;103.762;2023-07-31T08:01:41;31.10;99.90
27781;DHT22;15167;1.318;103.762;2023-07-31T08:04:08;31.00;99.90
27781;DHT22;15167;1.318;103.762;2023-07-31T08:06:34;31.00;99.90
27781;DHT22;15167;1.318;103.762;2023-07-31T08:09:01;31.20;99.90
27781;DHT22;15167;1.318;103.762;2023-07-31T08:11:32;31.50;99.90
27781;DHT22;15167;1.318;103.762;2023-07-31T08:13:59;31.60;99.90
27781;DHT22;15167;1.318;103.762;2023-07-31T08:16:26;31.60;99.90
27781;DHT22;15167;1.318;103.762;2023-07-31T08:18:52;31.50;99.90
27781;DHT22;15167;1.318;103.762;2023-07-31T08:21:19;31.50;99.90
27781;DHT22;15167;1.318;103.762;2023-07-31T08:23:45;31.60;99.90
27781;DHT22;15167;1.318;103.762;2023-07-31T08:26:16;31.50;99.90
27781;DHT22;15167;1.318;103.762;2023-07-31T08:28:43;31.60;99.90
27781;DHT22;15167;1.318;103.762;2023-07-31T08:31:09;31.60;99.90
27781;DHT22;15167;1.318;103.762;2023-07-31T08:33:40;31.60;99.90
27781;DHT22;15167;1.318;103.762;2023-07-31T08:36:06;31.90;99.90
27781;DHT22;15167;1.318;103.762;2023-07-31T08:38:33;32.20;99.90
27781;DHT22;15167;1.318;103.762;2023-07-31T08:41:00;32.30;99.90
27781;DHT22;15167;1.318;103.762;2023-07-31T08:43:27;32.30;99.90
27781;DHT22;15167;1.318;103.762;2023-07-31T08:45:54;32.40;99.90
27781;DHT22;15167;1.318;103.762;2023-07-31T08:48:22;32.60;99.90
27781;DHT22;15167;1.318;103.762;2023-07-31T08:50:49;32.60;99.90
27781;DHT22;15167;1.318;103.762;2023-07-31T08:53:16;32.40;99.90
27781;DHT22;15167;1.318;103.762;2023-07-31T08:55:44;32.30;99.90
27781;DHT22;15167;1.318;103.762;2023-07-31T08:58:13;32.20;99.90
27781;DHT22;15167;1.318;103.762;2023-07-31T09:00:40;32.20;99.90
27781;DHT22;15167;1.318;103.762;2023-07-31T09:03:14;32.00;99.90
27781;DHT22;15167;1.318;103.762;2023-07-31T09:05:46;32.00;99.60
27781;DHT22;15167;1.318;103.762;2023-07-31T09:08:14;31.90;99.50
27781;DHT22;15167;1.318;103.762;2023-07-31T09:10:42;31.80;99.60
27781;DHT22;15167;1.318;103.762;2023-07-31T09:13:10;31.80;99.90
27781;DHT22;15167;1.318;103.762;2023-07-31T09:15:37;31.80;99.90
27781;DHT22;15167;1.318;103.762;2023-07-31T09:18:05;31.80;99.90
27781;DHT22;15167;1.318;103.762;2023-07-31T09:20:32;31.70;99.90
27781;DHT22;15167;1.318;103.762;2023-07-31T09:23:07;31.50;99.90
27781;DHT22;15167;1.318;103.762;2023-07-31T09:25:34;31.40;99.90
27781;DHT22;15167;1.318;103.762;2023-07-31T09:28:03;31.30;99.90
27781;DHT22;15167;1.318;103.762;2023-07-31T09:30:30;31.20;99.90
27781;DHT22;15167;1.318;103.762;2023-07-31T09:33:02;31.10;99.90
27781;DHT22;15167;1.318;103.762;2023-07-31T09:35:31;31.10;99.90
27781;DHT22;15167;1.318;103.762;2023-07-31T09:38:00;31.10;99.90
27781;DHT22;15167;1.318;103.762;2023-07-31T09:40:28;31.00;99.90
27781;DHT22;15167;1.318;103.762;2023-07-31T09:43:02;31.00;99.90
27781;DHT22;15167;1.318;103.762;2023-07-31T09:45:30;31.00;99.90
27781;DHT22;15167;1.318;103.762;2023-07-31T09:47:57;30.90;99.90
27781;DHT22;15167;1.318;103.762;2023-07-31T09:50:24;30.80;99.90
27781;DHT22;15167;1.318;103.762;2023-07-31T09:52:52;30.80;99.90
27781;DHT22;15167;1.318;103.762;2023-07-31T09:55:19;30.80;99.90
27781;DHT22;15167;1.318;103.762;2023-07-31T09:57:47;30.70;99.90
27781;DHT22;15167;1.318;103.762;2023-07-31T10:00:17;30.70;99.90
27781;DHT22;15167;1.318;103.762;2023-07-31T10:02:47;30.60;99.90
27781;DHT22;15167;1.318;103.762;2023-07-31T10:05:15;30.60;99.90
27781;DHT22;15167;1.318;103.762;2023-07-31T10:08:03;30.60;99.90
27781;DHT22;15167;1.318;103.762;2023-07-31T10:10:30;30.50;99.90
27781;DHT22;15167;1.318;103.762;2023-07-31T10:12:59;30.50;99.90
27781;DHT22;15167;1.318;103.762;2023-07-31T10:15:26;30.40;99.90
27781;DHT22;15167;1.318;103.762;2023-07-31T10:17:54;30.40;99.90
27781;DHT22;15167;1.318;103.762;2023-07-31T10:20:21;30.20;99.90
27781;DHT22;15167;1.318;103.762;2023-07-31T10:22:48;30.10;99.90
27781;DHT22;15167;1.318;103.762;2023-07-31T10:25:18;30.00;99.90
27781;DHT22;15167;1.318;103.762;2023-07-31T10:27:47;30.00;99.90
27781;DHT22;15167;1.318;103.762;2023-07-31T10:30:18;29.90;99.90
27781;DHT22;15167;1.318;103.762;2023-07-31T10:32:46;30.00;99.90
27781;DHT22;15167;1.318;103.762;2023-07-31T10:35:16;29.90;99.90
27781;DHT22;15167;1.318;103.762;2023-07-31T10:37:44;29.90;99.90
27781;DHT22;15167;1.318;103.762;2023-07-31T10:40:28;29.90;99.90
27781;DHT22;15167;1.318;103.762;2023-07-31T10:42:57;29.90;99.90
27781;DHT22;15167;1.318;103.762;2023-07-31T10:45:27;29.80;99.90
27781;DHT22;15167;1.318;103.762;2023-07-31T10:48:20;29.70;99.90
27781;DHT22;15167;1.318;103.762;2023-07-31T10:50:51;29.70;99.90
27781;DHT22;15167;1.318;103.762;2023-07-31T10:53:26;29.70;99.90
27781;DHT22;15167;1.318;103.762;2023-07-31T10:55:53;29.70;99.90
27781;DHT22;15167;1.318;103.762;2023-07-31T10:58:23;29.70;99.90
27781;DHT22;15167;1.318;103.762;2023-07-31T11:00:51;29.80;99.90
27781;DHT22;15167;1.318;103.762;2023-07-31T11:03:26;29.80;99.90
27781;DHT22;15167;1.318;103.762;2023-07-31T11:05:59;29.70;99.90
27781;DHT22;15167;1.318;103.762;2023-07-31T11:08:28;29.70;99.90
27781;DHT22;15167;1.318;103.762;2023-07-31T11:13:33;29.60;99.90
27781;DHT22;15167;1.318;103.762;2023-07-31T11:16:00;29.60;99.90
27781;DHT22;15167;1.318;103.762;2023-07-31T11:18:27;29.50;99.90
27781;DHT22;15167;1.318;103.762;2023-07-31T11:20:54;29.50;99.90
27781;DHT22;15167;1.318;103.762;2023-07-31T11:23:22;29.60;99.90
27781;DHT22;15167;1.318;103.762;2023-07-31T11:25:50;29.60;99.90
27781;DHT22;15167;1.318;103.762;2023-07-31T11:28:18;29.50;99.90
27781;DHT22;15167;1.318;103.762;2023-07-31T11:30:45;29.50;99.90
27781;DHT22;15167;1.318;103.762;2023-07-31T11:33:13;29.50;99.90
27781;DHT22;15167;1.318;103.762;2023-07-31T11:35:48;29.50;99.90
27781;DHT22;15167;1.318;103.762;2023-07-31T11:38:29;29.50;99.90
27781;DHT22;15167;1.318;103.762;2023-07-31T11:40:58;29.40;99.90
27781;DHT22;15167;1.318;103.762;2023-07-31T11:43:25;29.40;99.90
27781;DHT22;15167;1.318;103.762;2023-07-31T11:45:55;29.50;99.90
27781;DHT22;15167;1.318;103.762;2023-07-31T11:48:27;29.50;99.90
27781;DHT22;15167;1.318;103.762;2023-07-31T11:50:58;29.40;99.90
27781;DHT22;15167;1.318;103.762;2023-07-31T11:56:01;29.40;99.90
27781;DHT22;15167;1.318;103.762;2023-07-31T11:58:32;29.30;99.90
27781;DHT22;15167;1.318;103.762;2023-07-31T12:00:59;29.30;99.90
27781;DHT22;15167;1.318;103.762;2023-07-31T12:03:26;29.20;99.90
27781;DHT22;15167;1.318;103.762;2023-07-31T12:05:54;29.30;99.90
27781;DHT22;15167;1.318;103.762;2023-07-31T12:08:24;29.30;99.90
27781;DHT22;15167;1.318;103.762;2023-07-31T12:10:54;29.20;99.90
27781;DHT22;15167;1.318;103.762;2023-07-31T12:13:28;29.20;99.90
27781;DHT22;15167;1.318;103.762;2023-07-31T12:15:56;29.20;99.90
27781;DHT22;15167;1.318;103.762;2023-07-31T12:18:24;29.20;99.90
27781;DHT22;15167;1.318;103.762;2023-07-31T12:20:56;29.20;99.90
27781;DHT22;15167;1.318;103.762;2023-07-31T12:23:33;29.30;99.90
27781;DHT22;15167;1.318;103.762;2023-07-31T12:26:20;29.20;99.90
27781;DHT22;15167;1.318;103.762;2023-07-31T12:28:50;29.20;99.90
27781;DHT22;15167;1.318;103.762;2023-07-31T12:31:18;29.20;99.90
27781;DHT22;15167;1.318;103.762;2023-07-31T12:33:46;29.30;99.90
27781;DHT22;15167;1.318;103.762;2023-07-31T12:36:17;29.20;99.90
27781;DHT22;15167;1.318;103.762;2023-07-31T12:38:45;29.20;99.90
27781;DHT22;15167;1.318;103.762;2023-07-31T12:41:11;29.10;99.90
27781;DHT22;15167;1.318;103.762;2023-07-31T12:43:40;29.10;99.90
27781;DHT22;15167;1.318;103.762;2023-07-31T12:46:07;29.00;99.90
27781;DHT22;15167;1.318;103.762;2023-07-31T12:48:34;29.00;99.90
27781;DHT22;15167;1.318;103.762;2023-07-31T12:51:01;29.00;99.90
27781;DHT22;15167;1.318;103.762;2023-07-31T12:53:28;29.00;99.90
27781;DHT22;15167;1.318;103.762;2023-07-31T12:55:56;29.00;99.90
27781;DHT22;15167;1.318;103.762;2023-07-31T12:58:23;28.90;99.90
27781;DHT22;15167;1.318;103.762;2023-07-31T13:00:50;28.90;99.90
27781;DHT22;15167;1.318;103.762;2023-07-31T13:03:16;29.00;99.90
27781;DHT22;15167;1.318;103.762;2023-07-31T13:05:43;28.90;99.90
27781;DHT22;15167;1.318;103.762;2023-07-31T13:08:09;28.90;99.90
27781;DHT22;15167;1.318;103.762;2023-07-31T13:10:36;28.90;99.90
27781;DHT22;15167;1.318;103.762;2023-07-31T13:13:02;28.90;99.90
27781;DHT22;15167;1.318;103.762;2023-07-31T13:15:29;28.90;99.90
27781;DHT22;15167;1.318;103.762;2023-07-31T13:17:55;28.90;99.90
27781;DHT22;15167;1.318;103.762;2023-07-31T13:20:22;28.90;99.90
27781;DHT22;15167;1.318;103.762;2023-07-31T13:22:49;28.90;99.90
27781;DHT22;15167;1.318;103.762;2023-07-31T13:25:15;28.90;99.90
27781;DHT22;15167;1.318;103.762;2023-07-31T13:27:42;28.80;99.90
27781;DHT22;15167;1.318;103.762;2023-07-31T13:30:09;28.80;99.90
27781;DHT22;15167;1.318;103.762;2023-07-31T13:32:35;28.80;99.90
27781;DHT22;15167;1.318;103.762;2023-07-31T13:35:08;28.80;99.90
27781;DHT22;15167;1.318;103.762;2023-07-31T13:37:35;28.80;99.90
27781;DHT22;15167;1.318;103.762;2023-07-31T13:40:02;28.80;99.90
27781;DHT22;15167;1.318;103.762;2023-07-31T13:42:31;28.80;1.00
27781;DHT22;15167;1.318;103.762;2023-07-31T13:44:58;28.80;1.00
27781;DHT22;15167;1.318;103.762;2023-07-31T13:47:24;28.70;1.00
27781;DHT22;15167;1.318;103.762;2023-07-31T13:49:51;28.70;1.00
27781;DHT22;15167;1.318;103.762;2023-07-31T13:52:17;28.70;1.00
27781;DHT22;15167;1.318;103.762;2023-07-31T13:54:44;28.80;99.90
27781;DHT22;15167;1.318;103.762;2023-07-31T13:57:10;28.70;99.90
27781;DHT22;15167;1.318;103.762;2023-07-31T13:59:37;28.70;99.90
27781;DHT22;15167;1.318;103.762;2023-07-31T14:02:03;28.70;99.90
27781;DHT22;15167;1.318;103.762;2023-07-31T14:04:30;28.70;99.90
27781;DHT22;15167;1.318;103.762;2023-07-31T14:06:57;28.70;99.90
27781;DHT22;15167;1.318;103.762;2023-07-31T14:09:23;28.60;99.90
27781;DHT22;15167;1.318;103.762;2023-07-31T14:11:50;28.60;99.90
27781;DHT22;15167;1.318;103.762;2023-07-31T14:14:16;28.50;99.90
27781;DHT22;15167;1.318;103.762;2023-07-31T14:16:44;28.60;99.90
27781;DHT22;15167;1.318;103.762;2023-07-31T14:19:11;28.60;99.90
27781;DHT22;15167;1.318;103.762;2023-07-31T14:21:37;28.50;99.90
27781;DHT22;15167;1.318;103.762;2023-07-31T14:24:04;28.60;99.90
27781;DHT22;15167;1.318;103.762;2023-07-31T14:26:31;28.60;99.90
27781;DHT22;15167;1.318;103.762;2023-07-31T14:28:57;28.70;99.90
27781;DHT22;15167;1.318;103.762;2023-07-31T14:31:24;28.60;99.90
27781;DHT22;15167;1.318;103.762;2023-07-31T14:33:50;28.60;99.90
27781;DHT22;15167;1.318;103.762;2023-07-31T14:36:17;28.60;99.90
27781;DHT22;15167;1.318;103.762;2023-07-31T14:38:43;28.60;99.90
27781;DHT22;15167;1.318;103.762;2023-07-31T14:41:10;28.60;99.90
27781;DHT22;15167;1.318;103.762;2023-07-31T14:43:37;28.60;99.90
27781;DHT22;15167;1.318;103.762;2023-07-31T14:46:05;28.60;99.90
27781;DHT22;15167;1.318;103.762;2023-07-31T14:48:31;28.60;99.90
27781;DHT22;15167;1.318;103.762;2023-07-31T14:50:58;28.60;99.90
27781;DHT22;15167;1.318;103.762;2023-07-31T14:53:24;28.50;99.90
27781;DHT22;15167;1.318;103.762;2023-07-31T14:55:51;28.50;99.90
27781;DHT22;15167;1.318;103.762;2023-07-31T14:58:17;28.50;99.90
27781;DHT22;15167;1.318;103.762;2023-07-31T15:00:44;28.50;99.90
27781;DHT22;15167;1.318;103.762;2023-07-31T15:03:11;28.50;99.90
27781;DHT22;15167;1.318;103.762;2023-07-31T15:05:37;28.50;99.90
27781;DHT22;15167;1.318;103.762;2023-07-31T15:08:04;28.60;99.90
27781;DHT22;15167;1.318;103.762;2023-07-31T15:10:31;28.60;99.90
27781;DHT22;15167;1.318;103.762;2023-07-31T15:12:57;28.50;99.90
27781;DHT22;15167;1.318;103.762;2023-07-31T15:15:24;28.50;99.90
27781;DHT22;15167;1.318;103.762;2023-07-31T15:17:51;28.50;99.90
27781;DHT22;15167;1.318;103.762;2023-07-31T15:20:17;28.50;99.90
27781;DHT22;15167;1.318;103.762;2023-07-31T15:22:44;28.50;99.90
27781;DHT22;15167;1.318;103.762;2023-07-31T15:25:11;28.40;1.00
27781;DHT22;15167;1.318;103.762;2023-07-31T15:27:37;28.50;1.00
27781;DHT22;15167;1.318;103.762;2023-07-31T15:30:04;28.50;1.00
27781;DHT22;15167;1.318;103.762;2023-07-31T15:32:31;28.50;1.00
27781;DHT22;15167;1.318;103.762;2023-07-31T15:34:57;28.40;1.00